Time;durP1;ratioP1;P1;durP2;ratioP2;P2;SDS_P1;SDS_P2;PMS_P1;PMS_P2;Temp;Humidity;BMP_temperature;BMP_pressure;BME280_temperature;BME280_humidity;BME280_pressure;Samples;Min_cycle;Max_cycle;Signal;HPM_P1;HPM_P2
2022/10/23 00:00:18;;;;;;;8.40;3.85;;;;;;;14.02;83.41;100066.53;5026446;28;20036;-88
2022/10/23 00:02:51;;;;;;;9.50;3.70;;;;;;;13.91;82.69;100064.06;5029343;28;20052;-88
2022/10/23 00:05:19;;;;;;;4.85;3.60;;;;;;;13.93;83.23;100050.59;5019129;28;20485;-88
2022/10/23 00:07:53;;;;;;;12.60;4.30;;;;;;;13.82;82.76;100047.16;5022684;28;20500;-89
2022/10/23 00:10:22;;;;;;;9.85;4.20;;;;;;;13.86;82.93;100043.16;4994140;28;22920;-89
2022/10/23 00:12:49;;;;;;;14.93;4.72;;;;;;;13.82;83.26;100035.63;5029161;28;20045;-87
2022/10/23 00:15:18;;;;;;;9.40;3.97;;;;;;;13.79;82.65;100031.44;5011313;28;20435;-91
2022/10/23 00:17:45;;;;;;;11.68;4.15;;;;;;;13.81;82.62;100040.09;5037923;28;20094;-90
2022/10/23 00:20:12;;;;;;;8.48;4.03;;;;;;;13.76;82.67;100042.41;5040992;28;20049;-88
2022/10/23 00:22:39;;;;;;;11.18;3.85;;;;;;;13.83;82.03;100031.97;5046338;28;20076;-90
2022/10/23 00:25:07;;;;;;;7.78;3.65;;;;;;;13.79;81.58;100030.56;5026593;28;20142;-90
2022/10/23 00:27:34;;;;;;;9.88;3.70;;;;;;;13.76;82.33;100022.88;5033922;28;20036;-88
2022/10/23 00:30:02;;;;;;;14.07;3.55;;;;;;;13.80;81.82;100024.25;5028617;28;20056;-89
2022/10/23 00:32:29;;;;;;;9.10;3.80;;;;;;;13.75;82.60;100021.22;5049795;28;20124;-89
2022/10/23 00:34:55;;;;;;;9.25;3.38;;;;;;;13.85;82.68;100024.66;5033313;28;20037;-88
2022/10/23 00:37:22;;;;;;;6.82;3.13;;;;;;;13.84;82.96;100007.81;5035070;28;20055;-89
2022/10/23 00:39:49;;;;;;;7.95;3.45;;;;;;;13.85;83.36;100014.81;5022888;28;20099;-89
2022/10/23 00:42:17;;;;;;;6.18;3.53;;;;;;;13.83;83.23;100014.09;5013192;28;20480;-88
2022/10/23 00:44:44;;;;;;;10.38;3.40;;;;;;;13.84;83.32;100013.13;5030991;28;20088;-89
2022/10/23 00:47:11;;;;;;;9.40;3.58;;;;;;;13.80;83.10;100009.09;5031822;28;20068;-88
2022/10/23 00:49:38;;;;;;;7.55;3.28;;;;;;;13.85;82.23;100014.81;5044690;28;20385;-88
2022/10/23 00:52:11;;;;;;;8.60;3.78;;;;;;;13.81;82.37;100004.56;5035322;28;20044;-89
2022/10/23 00:54:41;;;;;;;8.63;3.50;;;;;;;13.83;82.31;99987.41;5047375;28;20040;-89
2022/10/23 00:57:12;;;;;;;8.45;3.78;;;;;;;13.74;82.12;99991.03;5021397;28;20085;-88
2022/10/23 00:59:39;;;;;;;5.53;3.63;;;;;;;13.75;82.83;99994.53;5033467;28;20037;-88
2022/10/23 01:02:06;;;;;;;9.85;3.92;;;;;;;13.67;82.87;99988.13;5040962;28;20076;-90
2022/10/23 01:04:33;;;;;;;6.15;3.58;;;;;;;13.67;82.88;99989.94;5035109;28;20124;-89
2022/10/23 01:07:33;;;;;;;8.45;3.85;;;;;;;13.44;82.07;99994.88;5039403;28;20064;-89
2022/10/23 01:10:26;;;;;;;11.30;4.40;;;;;;;13.37;82.17;99996.47;4987135;28;20067;-88
2022/10/23 01:13:27;;;;;;;10.55;3.95;;;;;;;13.45;81.91;99988.53;5001870;28;20086;-89
2022/10/23 01:16:10;;;;;;;11.18;4.18;;;;;;;13.31;81.80;99984.56;4991338;28;20045;-89
2022/10/23 01:18:48;;;;;;;13.13;3.50;;;;;;;13.38;82.04;99983.00;5007507;28;20040;-88
2022/10/23 01:21:35;;;;;;;6.05;3.53;;;;;;;13.22;81.75;99978.25;5012616;28;20513;-90
2022/10/23 01:24:09;;;;;;;8.35;3.33;;;;;;;13.29;81.81;99975.88;5002336;28;20049;-89
2022/10/23 01:26:54;;;;;;;7.35;3.13;;;;;;;13.33;81.28;99982.59;5025189;28;20040;-89
2022/10/23 01:29:39;;;;;;;6.82;2.78;;;;;;;13.21;80.93;99987.25;4985483;28;20060;-88
2022/10/23 01:32:14;;;;;;;9.73;3.20;;;;;;;13.34;81.21;99978.94;5011932;28;20052;-90
2022/10/23 01:34:48;;;;;;;8.55;2.60;;;;;;;13.32;81.31;99966.75;5018264;28;20055;-89
2022/10/23 01:37:20;;;;;;;6.97;2.63;;;;;;;13.42;81.32;99964.84;5005113;28;20049;-90
2022/10/23 01:39:51;;;;;;;10.65;2.53;;;;;;;13.43;81.20;99977.19;4985545;28;20096;-88
2022/10/23 01:42:27;;;;;;;4.57;2.85;;;;;;;13.39;81.26;99973.16;5016596;28;20107;-89
2022/10/23 01:45:02;;;;;;;7.93;2.55;;;;;;;13.37;81.36;99972.47;4997023;28;20091;-88
2022/10/23 01:47:38;;;;;;;4.95;2.55;;;;;;;13.49;81.67;99973.09;4995019;28;20041;-89
2022/10/23 01:50:08;;;;;;;8.43;2.67;;;;;;;13.42;82.07;99976.34;5020214;28;20053;-88
2022/10/23 01:52:36;;;;;;;8.88;3.17;;;;;;;13.48;82.00;99982.06;5040725;28;20447;-89
2022/10/23 01:55:04;;;;;;;9.52;3.00;;;;;;;13.48;82.20;99969.56;5029471;28;20439;-89
2022/10/23 01:57:34;;;;;;;11.63;2.70;;;;;;;13.42;82.42;99971.00;5004906;28;20041;-90
2022/10/23 02:00:09;;;;;;;8.13;3.30;;;;;;;13.37;82.21;99967.97;5004750;28;20054;-90
2022/10/23 02:02:50;;;;;;;13.55;3.00;;;;;;;13.42;82.65;99972.84;4984600;28;20131;-88
2022/10/23 02:05:21;;;;;;;8.60;2.63;;;;;;;13.39;82.12;99970.50;5044733;28;20058;-88
2022/10/23 02:07:48;;;;;;;3.78;2.63;;;;;;;13.44;81.93;99969.03;5038528;28;20044;-87
2022/10/23 02:10:15;;;;;;;4.50;2.60;;;;;;;13.35;82.32;99974.44;5025712;28;20037;-89
2022/10/23 02:13:00;;;;;;;5.03;3.58;;;;;;;13.15;81.85;99974.53;5031558;28;20084;-89
2022/10/23 02:15:39;;;;;;;9.07;2.92;;;;;;;13.11;81.86;99958.97;4995880;28;20057;-88
2022/10/23 02:18:26;;;;;;;5.65;2.65;;;;;;;13.04;81.89;99953.41;4995240;28;20057;-88
2022/10/23 02:21:13;;;;;;;7.78;2.80;;;;;;;13.06;81.99;99948.75;5004172;28;20076;-88
2022/10/23 02:23:48;;;;;;;6.20;2.38;;;;;;;13.11;81.90;99946.47;5005139;28;20127;-89
2022/10/23 02:26:40;;;;;;;9.73;3.08;;;;;;;13.05;82.42;99952.41;4980100;28;20048;-89
2022/10/23 02:29:12;;;;;;;6.00;2.78;;;;;;;13.23;81.88;99952.47;4999079;28;20044;-88
2022/10/23 02:31:41;;;;;;;5.65;2.50;;;;;;;13.26;82.36;99946.81;5017024;28;20060;-89
2022/10/23 02:34:08;;;;;;;3.97;2.78;;;;;;;13.27;82.68;99951.19;5043289;28;20115;-88
2022/10/23 02:36:35;;;;;;;5.50;2.90;;;;;;;13.30;82.64;99953.53;4995207;28;20053;-88
2022/10/23 02:39:04;;;;;;;6.25;2.75;;;;;;;13.24;82.74;99940.78;5032355;28;20049;-89
2022/10/23 02:42:07;;;;;;;7.53;2.70;;;;;;;13.06;82.36;99946.09;5012963;28;20049;-89
2022/10/23 02:44:54;;;;;;;7.53;3.00;;;;;;;13.04;82.08;99932.06;4977008;28;20508;-88
2022/10/23 02:47:47;;;;;;;5.38;2.63;;;;;;;13.17;82.17;99929.88;4996611;28;20060;-88
2022/10/23 02:51:03;;;;;;;10.73;3.20;;;;;;;12.98;82.09;99919.34;4992779;28;20405;-88
2022/10/23 02:53:57;;;;;;;6.55;2.55;;;;;;;12.92;82.65;99930.59;4902481;28;20044;-88
2022/10/23 02:56:57;;;;;;;13.93;2.70;;;;;;;13.07;82.74;99917.59;4980782;28;20052;-88
2022/10/23 02:59:36;;;;;;;6.65;2.55;;;;;;;13.07;82.52;99923.75;4969555;28;20045;-88
2022/10/23 03:02:23;;;;;;;15.65;2.78;;;;;;;13.00;82.65;99917.34;4999761;28;20068;-89
2022/10/23 03:04:53;;;;;;;9.75;2.80;;;;;;;13.15;82.03;99913.22;5022606;28;20574;-88
2022/10/23 03:07:20;;;;;;;13.75;2.60;;;;;;;13.19;81.96;99911.06;5027190;28;20400;-87
2022/10/23 03:09:47;;;;;;;8.35;2.35;;;;;;;13.24;81.72;99911.47;5009424;28;20049;-89
2022/10/23 03:12:14;;;;;;;13.13;2.25;;;;;;;13.17;82.10;99915.72;5027044;28;20154;-88
2022/10/23 03:14:41;;;;;;;7.45;2.40;;;;;;;13.09;82.18;99908.47;5013435;28;20036;-88
2022/10/23 03:17:08;;;;;;;3.47;2.40;;;;;;;13.09;81.96;99903.13;5010003;28;20041;-88
2022/10/23 03:19:35;;;;;;;10.00;3.25;;;;;;;13.12;82.00;99902.81;5032202;28;20045;-87
2022/10/23 03:22:03;;;;;;;6.43;2.40;;;;;;;13.10;81.87;99903.97;5029046;28;20482;-89
2022/10/23 03:24:30;;;;;;;11.50;2.47;;;;;;;13.08;82.28;99903.28;5021828;28;20503;-89
2022/10/23 03:26:56;;;;;;;4.97;2.10;;;;;;;13.06;82.37;99899.94;5040391;28;20048;-88
2022/10/23 03:29:29;;;;;;;6.28;2.45;;;;;;;13.04;82.23;99892.09;5032281;28;20060;-87
2022/10/23 03:31:56;;;;;;;8.48;2.60;;;;;;;13.07;82.18;99891.78;5014005;28;20044;-89
2022/10/23 03:34:23;;;;;;;7.57;2.67;;;;;;;13.02;82.28;99892.22;5026435;28;20048;-89
2022/10/23 03:36:52;;;;;;;8.40;2.88;;;;;;;13.08;82.44;99893.47;5023403;28;20045;-88
2022/10/23 03:39:19;;;;;;;12.10;2.92;;;;;;;13.08;82.47;99896.13;5010857;28;20136;-88
2022/10/23 03:41:47;;;;;;;11.95;2.83;;;;;;;13.10;82.03;99887.97;5027619;28;20396;-89
2022/10/23 03:44:15;;;;;;;7.88;2.40;;;;;;;13.13;81.90;99896.53;5047061;28;20094;-89
2022/10/23 03:46:43;;;;;;;10.07;2.60;;;;;;;13.12;82.03;99886.00;5014078;28;20045;-90
2022/10/23 03:49:10;;;;;;;8.10;2.70;;;;;;;13.14;81.92;99882.19;5025601;28;20047;-89
2022/10/23 03:51:42;;;;;;;4.20;2.50;;;;;;;13.12;82.07;99894.81;5028431;28;20056;-88
2022/10/23 03:54:10;;;;;;;10.38;2.60;;;;;;;13.07;82.40;99882.94;5045472;28;20049;-90
2022/10/23 03:56:37;;;;;;;7.90;2.40;;;;;;;13.09;81.84;99891.63;5041304;28;20076;-88
2022/10/23 03:59:06;;;;;;;8.95;3.45;;;;;;;13.05;81.90;99893.75;5024940;28;20048;-88
2022/10/23 04:01:32;;;;;;;10.52;2.30;;;;;;;13.02;82.07;99892.22;5039369;28;20041;-88
2022/10/23 04:03:59;;;;;;;14.70;2.38;;;;;;;12.98;82.47;99895.34;5030197;28;20450;-87
2022/10/23 04:06:27;;;;;;;14.50;2.75;;;;;;;12.98;81.93;99900.69;5015272;28;20501;-87
2022/10/23 04:08:56;;;;;;;10.93;2.40;;;;;;;12.95;82.01;99899.16;5002188;28;20047;-88
2022/10/23 04:11:22;;;;;;;10.68;2.45;;;;;;;12.95;82.31;99888.50;5005270;28;20044;-88
2022/10/23 04:13:49;;;;;;;7.82;2.60;;;;;;;12.91;82.59;99888.94;5048979;28;20428;-87
2022/10/23 04:16:16;;;;;;;6.00;2.40;;;;;;;12.89;82.57;99890.91;5048224;28;20052;-88
2022/10/23 04:18:44;;;;;;;4.82;2.35;;;;;;;12.87;82.89;99890.22;5012783;28;20045;-88
2022/10/23 04:21:10;;;;;;;8.23;2.80;;;;;;;12.91;82.60;99894.28;5009123;28;20052;-88
2022/10/23 04:23:38;;;;;;;3.25;2.13;;;;;;;12.87;82.79;99896.38;5008296;28;20106;-87
2022/10/23 04:26:10;;;;;;;5.88;2.30;;;;;;;12.85;82.21;99893.06;5003021;28;20037;-88
2022/10/23 04:28:37;;;;;;;7.13;2.65;;;;;;;12.84;82.47;99885.19;5023783;28;20068;-87
2022/10/23 04:31:04;;;;;;;8.80;2.33;;;;;;;12.84;82.70;99894.03;5028384;28;20063;-87
2022/10/23 04:33:32;;;;;;;8.18;2.10;;;;;;;12.81;82.72;99889.00;5047320;28;20064;-88
2022/10/23 04:35:59;;;;;;;7.05;2.55;;;;;;;12.81;82.68;99889.00;5018445;28;20497;-88
2022/10/23 04:38:25;;;;;;;4.25;2.60;;;;;;;12.73;82.78;99895.06;5028162;28;20041;-88
2022/10/23 04:40:52;;;;;;;13.25;2.53;;;;;;;12.76;82.47;99889.44;5010603;28;20150;-87
2022/10/23 04:43:20;;;;;;;7.05;2.30;;;;;;;12.70;82.81;99892.69;4992853;28;20656;-88
2022/10/23 04:45:48;;;;;;;5.35;1.92;;;;;;;12.73;82.39;99884.41;5032246;28;20132;-87
2022/10/23 04:48:15;;;;;;;7.00;2.38;;;;;;;12.77;82.04;99888.47;5022378;28;20056;-88
2022/10/23 04:51:05;;;;;;;3.33;2.30;;;;;;;12.73;82.59;99887.06;4978611;28;20503;-88
2022/10/23 04:53:50;;;;;;;13.07;2.45;;;;;;;12.75;82.22;99889.59;4994081;28;20116;-88
2022/10/23 04:56:43;;;;;;;11.15;2.42;;;;;;;12.62;82.39;99879.28;4957422;28;20119;-88
2022/10/23 04:59:14;;;;;;;8.82;2.58;;;;;;;12.66;82.44;99879.81;5020818;28;20712;-87
2022/10/23 05:01:41;;;;;;;4.05;2.20;;;;;;;12.62;82.21;99871.31;5015036;28;20052;-87
2022/10/23 05:04:08;;;;;;;7.30;2.60;;;;;;;12.59;82.61;99874.22;5044721;28;20435;-88
2022/10/23 05:06:58;;;;;;;6.20;2.50;;;;;;;12.56;82.82;99867.38;5014105;28;20507;-88
2022/10/23 05:09:45;;;;;;;4.40;2.33;;;;;;;12.52;82.52;99862.50;5030275;28;20045;-88
2022/10/23 05:12:38;;;;;;;7.38;2.20;;;;;;;12.52;82.64;99881.16;4979255;28;20056;-87
2022/10/23 05:15:05;;;;;;;6.60;2.28;;;;;;;12.58;82.07;99880.56;4999362;28;20067;-88
2022/10/23 05:17:34;;;;;;;5.03;2.70;;;;;;;12.50;82.15;99881.28;5012822;28;20052;-87
2022/10/23 05:20:04;;;;;;;6.72;3.05;;;;;;;12.50;82.71;99870.66;5003306;28;20123;-88
2022/10/23 05:22:34;;;;;;;5.93;2.30;;;;;;;12.50;82.17;99875.97;5029174;28;20041;-87
2022/10/23 05:25:04;;;;;;;11.95;3.10;;;;;;;12.54;82.59;99880.03;5015942;28;20450;-88
2022/10/23 05:27:32;;;;;;;10.93;3.00;;;;;;;12.56;83.19;99879.88;5029522;28;20120;-88
2022/10/23 05:30:01;;;;;;;10.48;3.90;;;;;;;12.56;82.84;99879.88;5031903;28;20045;-88
2022/10/23 05:32:33;;;;;;;9.60;3.53;;;;;;;12.56;83.18;99882.53;5026444;28;20136;-88
2022/10/23 05:35:06;;;;;;;13.38;3.47;;;;;;;12.47;83.46;99883.44;5018781;28;20056;-89
2022/10/23 05:37:36;;;;;;;12.18;3.20;;;;;;;12.54;83.20;99876.50;5007397;28;20045;-88
2022/10/23 05:40:11;;;;;;;9.63;3.30;;;;;;;12.49;83.81;99874.31;5030139;28;20377;-88
2022/10/23 05:42:40;;;;;;;7.72;3.75;;;;;;;12.60;82.84;99868.78;5009123;28;20044;-88
2022/10/23 05:45:09;;;;;;;8.15;3.08;;;;;;;12.55;83.21;99873.69;5020476;28;20051;-88
2022/10/23 05:47:54;;;;;;;9.18;3.28;;;;;;;12.60;83.43;99870.59;4992815;28;20045;-87
2022/10/23 05:50:55;;;;;;;6.55;2.78;;;;;;;12.59;83.95;99869.78;5004943;28;20048;-87
2022/10/23 05:53:32;;;;;;;8.05;2.50;;;;;;;12.58;84.51;99861.91;5027831;28;20045;-87
2022/10/23 05:56:24;;;;;;;6.13;2.70;;;;;;;12.56;84.79;99861.22;4974657;28;20053;-87
2022/10/23 05:58:58;;;;;;;13.13;3.15;;;;;;;12.62;84.25;99865.97;5029466;28;20040;-87
2022/10/23 06:01:43;;;;;;;4.95;2.40;;;;;;;12.67;83.84;99868.16;4978007;28;20101;-88
2022/10/23 06:04:15;;;;;;;12.98;2.70;;;;;;;12.70;83.99;99865.22;4999486;28;20045;-88
2022/10/23 06:07:03;;;;;;;7.95;2.45;;;;;;;12.65;84.99;99856.84;4987217;28;20500;-87
2022/10/23 06:09:30;;;;;;;4.68;2.10;;;;;;;12.66;84.84;99856.69;5037629;28;20488;-89
2022/10/23 06:11:57;;;;;;;6.10;2.45;;;;;;;12.68;84.75;99853.88;4998230;28;20128;-88
2022/10/23 06:14:24;;;;;;;7.72;2.90;;;;;;;12.72;84.91;99848.09;5038463;28;20102;-88
2022/10/23 06:16:52;;;;;;;4.63;3.00;;;;;;;12.72;85.22;99839.25;5028161;28;20048;-88
2022/10/23 06:19:20;;;;;;;5.65;2.60;;;;;;;12.73;85.36;99836.44;4995757;28;20041;-88
2022/10/23 06:21:51;;;;;;;8.05;3.38;;;;;;;12.73;85.40;99833.78;5042520;28;20473;-88
2022/10/23 06:24:22;;;;;;;11.57;3.38;;;;;;;12.74;85.61;99831.94;5022126;28;20082;-88
2022/10/23 06:26:55;;;;;;;6.50;4.15;;;;;;;12.73;85.57;99833.78;5012919;28;20384;-87
2022/10/23 06:29:41;;;;;;;11.15;3.40;;;;;;;12.81;84.72;99825.03;4986455;28;20051;-87
2022/10/23 06:32:08;;;;;;;8.18;3.17;;;;;;;12.82;84.58;99826.69;5043504;28;21161;-79
2022/10/23 06:34:36;;;;;;;6.68;2.85;;;;;;;12.81;84.56;99830.38;5030848;28;20045;-80
2022/10/23 06:37:05;;;;;;;6.70;2.42;;;;;;;12.82;84.68;99835.56;5045417;28;20468;-80
2022/10/23 06:39:39;;;;;;;8.95;3.25;;;;;;;12.76;85.64;99825.47;5030463;28;20052;-79
2022/10/23 06:42:13;;;;;;;5.68;3.00;;;;;;;12.80;85.36;99821.53;5013670;28;20049;-79
2022/10/23 06:45:06;;;;;;;5.57;3.00;;;;;;;12.81;84.52;99814.38;4999357;28;20488;-79
2022/10/23 06:47:44;;;;;;;8.45;3.25;;;;;;;12.85;84.08;99815.78;5032063;28;20451;-80
2022/10/23 06:50:40;;;;;;;5.30;3.15;;;;;;;12.86;84.16;99819.25;4995953;28;20116;-79
2022/10/23 06:53:13;;;;;;;;;;;;;;;12.55;85.77;99822.25;5011836;28;20466;-79
2022/10/23 06:55:46;;;;;;;7.40;2.42;;;;;;;12.84;84.48;99811.41;5026234;28;20371;-79
2022/10/23 06:58:18;;;;;;;6.88;2.70;;;;;;;12.93;83.99;99812.34;5040929;28;20127;-79
2022/10/23 07:01:03;;;;;;;7.25;2.92;;;;;;;12.88;84.09;99810.13;5013027;28;20056;-79
2022/10/23 07:03:30;;;;;;;11.97;6.67;;;;;;;12.93;84.07;99823.84;5027519;28;20044;-80
2022/10/23 07:06:05;;;;;;;11.38;4.00;;;;;;;12.91;84.61;99833.81;5025076;28;20551;-80
2022/10/23 07:08:32;;;;;;;4.43;3.10;;;;;;;12.95;84.18;99823.66;5023268;28;20048;-80
2022/10/23 07:11:07;;;;;;;5.80;3.63;;;;;;;12.86;84.41;99821.94;5047767;28;20464;-79
2022/10/23 07:13:35;;;;;;;8.82;3.40;;;;;;;12.96;84.28;99822.69;5022295;28;20077;-80
2022/10/23 07:16:16;;;;;;;8.95;3.70;;;;;;;12.90;84.82;99816.16;5037876;28;20566;-79
2022/10/23 07:18:44;;;;;;;7.68;3.40;;;;;;;12.91;84.83;99822.31;5023795;28;20068;-78
2022/10/23 07:21:28;;;;;;;6.25;3.90;;;;;;;12.95;84.90;99829.00;5014242;28;20040;-79
2022/10/23 07:24:07;;;;;;;5.88;3.55;;;;;;;12.95;85.34;99824.53;5004236;28;20118;-78
2022/10/23 07:26:37;;;;;;;9.88;3.47;;;;;;;12.93;84.77;99825.69;5037888;28;20043;-78
2022/10/23 07:29:04;;;;;;;8.40;3.65;;;;;;;12.97;84.72;99827.03;5034340;28;20101;-78
2022/10/23 07:31:32;;;;;;;6.43;4.10;;;;;;;12.98;84.78;99813.56;5030140;28;20111;-78
2022/10/23 07:34:17;;;;;;;8.90;3.88;;;;;;;12.97;84.80;99822.53;4994555;28;20060;-80
2022/10/23 07:36:58;;;;;;;11.98;4.28;;;;;;;12.97;85.19;99827.03;4989909;28;20061;-80
2022/10/23 07:39:24;;;;;;;17.13;4.60;;;;;;;12.99;85.36;99835.72;5045678;28;20079;-79
2022/10/23 07:41:51;;;;;;;12.10;5.00;;;;;;;13.02;85.53;99827.41;5026190;28;20045;-78
2022/10/23 07:44:18;;;;;;;13.20;4.40;;;;;;;13.05;85.50;99840.44;5029907;28;20055;-79
2022/10/23 07:46:49;;;;;;;11.88;4.95;;;;;;;13.04;86.11;99841.44;5020403;28;20049;-79
2022/10/23 07:49:16;;;;;;;8.90;5.15;;;;;;;13.10;86.39;99840.84;5029703;28;20127;-79
2022/10/23 07:51:43;;;;;;;9.80;4.82;;;;;;;13.17;86.52;99831.22;5041180;28;20048;-77
2022/10/23 07:54:17;;;;;;;10.02;4.55;;;;;;;13.13;86.92;99840.53;5027700;28;20381;-80
2022/10/23 07:57:06;;;;;;;6.90;3.97;;;;;;;13.15;87.07;99843.03;4972837;28;20045;-80
2022/10/23 07:59:45;;;;;;;11.88;4.53;;;;;;;13.21;87.15;99831.78;5001741;28;20064;-80
2022/10/23 08:02:14;;;;;;;12.40;4.20;;;;;;;13.23;87.45;99830.63;5030024;28;20048;-79
2022/10/23 08:04:42;;;;;;;7.43;4.40;;;;;;;13.24;87.75;99834.97;5026203;28;20480;-78
2022/10/23 08:07:31;;;;;;;6.15;4.05;;;;;;;13.29;87.62;99845.22;4979402;28;20064;-79
2022/10/23 08:09:59;;;;;;;9.88;4.28;;;;;;;13.34;87.93;99826.09;5033540;28;20041;-79
2022/10/23 08:12:27;;;;;;;9.93;4.07;;;;;;;13.39;88.21;99823.78;5012089;28;20041;-79
2022/10/23 08:14:55;;;;;;;9.10;4.20;;;;;;;13.44;87.90;99833.00;5045601;28;20471;-79
2022/10/23 08:17:24;;;;;;;8.90;4.28;;;;;;;13.47;88.01;99837.19;5024807;28;20102;-80
2022/10/23 08:20:15;;;;;;;8.02;4.35;;;;;;;13.48;87.60;99832.69;4998254;28;20047;-79
2022/10/23 08:22:44;;;;;;;9.23;4.22;;;;;;;13.52;87.84;99831.41;5038475;28;20175;-79
2022/10/23 08:25:16;;;;;;;7.93;4.28;;;;;;;13.52;87.64;99812.72;5014828;28;20045;-79
2022/10/23 08:27:46;;;;;;;8.15;3.95;;;;;;;13.55;87.86;99802.56;5015730;28;20037;-79
2022/10/23 08:30:14;;;;;;;11.35;4.20;;;;;;;13.60;87.45;99810.09;5030635;28;20040;-80
2022/10/23 08:32:42;;;;;;;7.40;4.38;;;;;;;13.66;87.34;99806.81;5011526;28;20041;-79
2022/10/23 08:35:11;;;;;;;9.88;3.90;;;;;;;13.72;87.16;99792.84;5033286;28;20052;-79
2022/10/23 08:37:38;;;;;;;9.70;4.10;;;;;;;13.74;87.37;99785.53;5037597;28;20450;-79
2022/10/23 08:40:06;;;;;;;6.60;3.58;;;;;;;13.77;87.38;99795.88;5057968;28;20046;-79
2022/10/23 08:43:17;;;;;;;9.90;3.95;;;;;;;13.77;87.51;99789.72;5041126;28;20073;-79
2022/10/23 08:46:00;;;;;;;5.43;3.35;;;;;;;13.83;86.95;99795.25;5010025;28;20507;-80
2022/10/23 08:49:27;;;;;;;5.38;3.35;;;;;;;13.89;86.95;99781.28;4945377;28;20131;-80
2022/10/23 08:51:59;;;;;;;3.22;2.58;;;;;;;13.99;87.15;99791.00;4992675;28;20470;-80
2022/10/23 08:54:50;;;;;;;5.43;2.90;;;;;;;14.00;88.00;99787.34;5016589;28;20060;-79
2022/10/23 08:57:17;;;;;;;3.13;2.58;;;;;;;14.16;87.04;99783.91;5014543;28;20060;-78
2022/10/23 08:59:53;;;;;;;6.38;2.85;;;;;;;14.21;87.01;99777.09;5023778;28;20131;-78
2022/10/23 09:02:25;;;;;;;6.30;3.08;;;;;;;14.26;86.80;99781.94;5026381;28;20102;-79
2022/10/23 09:04:53;;;;;;;4.40;2.72;;;;;;;14.31;86.59;99777.78;5043904;28;20044;-79
2022/10/23 09:07:33;;;;;;;4.28;2.63;;;;;;;14.33;86.58;99777.66;5031501;28;20049;-79
2022/10/23 09:10:14;;;;;;;5.47;2.67;;;;;;;14.34;86.48;99774.78;5018409;28;20060;-80
2022/10/23 09:12:41;;;;;;;8.18;2.80;;;;;;;14.42;86.10;99765.97;5033482;28;20036;-79
2022/10/23 09:15:29;;;;;;;4.82;2.40;;;;;;;14.40;86.40;99769.81;5048390;28;20056;-79
2022/10/23 09:18:03;;;;;;;6.65;2.30;;;;;;;14.48;86.35;99767.19;5000231;28;20068;-79
2022/10/23 09:20:35;;;;;;;6.03;2.97;;;;;;;14.51;86.40;99751.66;4995706;28;20153;-78
2022/10/23 09:23:21;;;;;;;3.30;2.58;;;;;;;14.56;86.23;99751.19;5029334;28;20174;-79
2022/10/23 09:25:54;;;;;;;6.13;2.67;;;;;;;14.61;86.44;99742.69;5029386;28;20436;-79
2022/10/23 09:28:27;;;;;;;5.60;2.47;;;;;;;14.61;86.76;99742.69;5026177;28;20045;-79
2022/10/23 09:31:08;;;;;;;4.07;2.70;;;;;;;14.63;86.92;99741.53;5017974;28;20048;-79
2022/10/23 09:33:36;;;;;;;5.68;3.03;;;;;;;14.71;87.04;99746.06;5039235;28;20049;-79
2022/10/23 09:36:06;;;;;;;7.97;2.53;;;;;;;14.73;87.08;99741.34;5031199;28;20056;-79
2022/10/23 09:38:38;;;;;;;3.22;2.60;;;;;;;14.78;86.81;99725.66;5051301;28;20408;-79
2022/10/23 09:41:17;;;;;;;7.30;2.60;;;;;;;14.83;86.97;99717.16;5048036;28;20094;-78
2022/10/23 09:43:44;;;;;;;5.82;2.50;;;;;;;14.83;87.17;99726.00;4995225;28;20122;-80
2022/10/23 09:46:11;;;;;;;5.05;2.20;;;;;;;14.86;86.57;99725.69;5027189;28;20095;-78
2022/10/23 09:48:41;;;;;;;4.53;2.45;;;;;;;14.87;86.83;99727.34;5034727;28;20049;-79
2022/10/23 09:51:20;;;;;;;3.78;2.22;;;;;;;14.84;87.02;99724.19;5024067;28;20040;-79
2022/10/23 09:53:51;;;;;;;5.43;2.22;;;;;;;14.93;86.99;99728.50;5019563;28;20436;-79
2022/10/23 09:56:32;;;;;;;2.22;2.00;;;;;;;14.90;86.67;99715.47;5038065;28;20052;-79
2022/10/23 09:59:05;;;;;;;3.58;2.17;;;;;;;14.97;86.82;99716.50;5030545;28;20044;-79
2022/10/23 10:01:45;;;;;;;3.38;1.88;;;;;;;14.95;87.03;99722.00;5025102;28;20095;-79
2022/10/23 10:04:38;;;;;;;6.20;2.25;;;;;;;15.02;86.52;99724.84;4974449;28;20068;-79
2022/10/23 10:07:19;;;;;;;7.25;2.22;;;;;;;15.02;86.57;99727.53;5020034;28;20508;-79
2022/10/23 10:09:46;;;;;;;4.20;2.55;;;;;;;15.12;86.11;99727.38;4995601;28;20104;-79
2022/10/23 10:12:34;;;;;;;4.63;2.10;;;;;;;15.09;86.07;99725.84;5039448;28;20439;-79
2022/10/23 10:15:14;;;;;;;8.48;2.70;;;;;;;15.15;86.28;99722.50;5031063;28;20045;-79
2022/10/23 10:18:12;;;;;;;6.57;2.70;;;;;;;15.16;86.72;99726.88;5026675;28;20053;-80
2022/10/23 10:21:22;;;;;;;7.00;2.17;;;;;;;15.15;87.38;99714.47;4993706;28;20052;-80
2022/10/23 10:23:55;;;;;;;5.93;2.15;;;;;;;15.24;86.35;99720.66;4941242;28;20408;-79
2022/10/23 10:26:34;;;;;;;4.78;2.13;;;;;;;15.26;86.33;99709.78;5062581;28;20041;-79
2022/10/23 10:29:05;;;;;;;2.53;1.50;;;;;;;15.34;86.39;99709.78;5025112;28;20587;-79
2022/10/23 10:31:42;;;;;;;5.55;2.10;;;;;;;15.37;86.00;99712.97;5036381;28;20401;-79
2022/10/23 10:34:41;;;;;;;2.63;1.77;;;;;;;15.34;85.00;99710.63;5022172;28;20107;-79
2022/10/23 10:37:56;;;;;;;5.40;2.25;;;;;;;15.35;85.30;99714.97;4976647;28;20098;-79
2022/10/23 10:40:47;;;;;;;6.97;2.40;;;;;;;15.41;85.14;99708.91;4925353;28;20249;-79
2022/10/23 10:43:32;;;;;;;2.60;1.98;;;;;;;15.49;85.26;99707.22;4955963;28;20100;-79
2022/10/23 10:46:19;;;;;;;3.00;1.95;;;;;;;15.43;85.97;99700.72;5011990;28;20068;-79
2022/10/23 10:48:57;;;;;;;1.92;1.67;;;;;;;15.49;85.79;99697.38;5019382;28;20048;-79
2022/10/23 10:51:48;;;;;;;3.00;1.80;;;;;;;15.48;86.54;99692.19;5008841;28;20397;-79
2022/10/23 10:54:37;;;;;;;5.22;2.08;;;;;;;15.50;86.82;99688.34;5036927;28;20040;-79
2022/10/23 10:57:41;;;;;;;4.03;1.98;;;;;;;15.55;87.56;99672.59;5011238;28;20404;-79
2022/10/23 11:00:17;;;;;;;6.07;2.05;;;;;;;15.59;87.41;99665.06;4969322;28;20078;-79
2022/10/23 11:03:21;;;;;;;3.92;2.58;;;;;;;15.64;86.95;99673.41;5011799;28;20052;-80
2022/10/23 11:05:49;;;;;;;2.90;1.75;;;;;;;15.66;86.74;99663.38;4958818;28;20043;-80
2022/10/23 11:08:35;;;;;;;4.95;2.13;;;;;;;15.68;86.97;99644.47;5026769;28;20037;-79
2022/10/23 11:11:34;;;;;;;7.35;2.15;;;;;;;15.70;87.09;99648.66;4957511;28;20064;-79
2022/10/23 11:14:01;;;;;;;2.80;1.73;;;;;;;15.74;86.82;99649.97;5007558;28;20045;-79
2022/10/23 11:16:30;;;;;;;2.63;1.80;;;;;;;15.76;86.34;99650.66;5031828;28;20048;-79
2022/10/23 11:19:19;;;;;;;9.65;1.80;;;;;;;15.69;86.03;99664.88;5035262;28;20048;-80
2022/10/23 11:21:54;;;;;;;3.58;1.73;;;;;;;15.80;86.49;99656.50;4995762;28;20045;-80
2022/10/23 11:24:41;;;;;;;5.60;4.05;;;;;;;15.80;85.92;99661.84;5024936;28;20099;-79
2022/10/23 11:27:13;;;;;;;12.88;7.18;;;;;;;15.91;86.03;99657.97;5012063;28;20510;-80
2022/10/23 11:29:59;;;;;;;6.82;3.92;;;;;;;15.85;85.22;99656.81;5046012;28;20044;-80
2022/10/23 11:32:34;;;;;;;3.33;2.42;;;;;;;15.97;85.49;99651.88;5036851;28;20072;-79
2022/10/23 11:35:18;;;;;;;4.60;2.47;;;;;;;15.93;87.38;99654.09;5022085;28;20400;-80
2022/10/23 11:37:44;;;;;;;4.97;1.73;;;;;;;16.01;87.44;99634.47;5033082;28;20098;-78
2022/10/23 11:40:21;;;;;;;2.85;1.70;;;;;;;15.99;87.46;99617.75;5027336;28;20063;-79
2022/10/23 11:42:49;;;;;;;6.90;3.78;;;;;;;16.02;86.92;99604.00;5025632;28;20054;-79
2022/10/23 11:45:36;;;;;;;7.18;2.92;;;;;;;15.91;87.17;99605.22;5024930;28;20047;-79
2022/10/23 11:48:20;;;;;;;3.30;2.10;;;;;;;15.91;87.08;99604.41;4996673;28;20368;-79
2022/10/23 11:50:46;;;;;;;4.20;1.85;;;;;;;15.95;87.46;99605.69;5019307;28;20043;-79
2022/10/23 11:53:29;;;;;;;7.50;2.03;;;;;;;15.89;89.31;99598.38;5055037;28;20048;-78
2022/10/23 11:56:04;;;;;;;3.85;1.77;;;;;;;15.95;88.89;99603.03;5021580;28;20045;-78
2022/10/23 11:58:45;;;;;;;3.33;1.75;;;;;;;15.88;89.38;99607.44;5039835;28;21558;-79
2022/10/23 12:01:30;;;;;;;4.82;1.90;;;;;;;15.87;89.28;99598.53;4987361;28;20504;-80
2022/10/23 12:04:01;;;;;;;4.20;1.58;;;;;;;15.97;88.92;99582.25;5024322;28;20051;-79
2022/10/23 12:06:38;;;;;;;3.63;1.73;;;;;;;15.95;89.33;99586.94;5038294;28;20044;-79
2022/10/23 12:09:20;;;;;;;3.50;1.70;;;;;;;16.00;88.57;99585.44;5043020;28;20049;-79